EGXV

RAF Leconfield Airport

Leconfield, United Kingdom
METAR EGXV 241050Z AUTO 29008KT 9999 NCD 12/05 Q1036
Observed Flight Rules
Sep-24 @ 10:50 UTC (48 minutes ago) Visual Flight Rules
Wind Visibility Clouds
290° at 8 knots 10,000+ meters
  • Clear skies
Temperatures Readings
Current 12°C / 54°F
Dewpoint 5°C / 41°F
Humidity 63%
Altimeter 30.59" Hg
Pressure 1036 hPa
Elevation 6
METAR EGXV 241050Z AUTO 29008KT 9999 NCD 12/05 Q1036
Observed Flight Rules
Sep-24 @ 10:50 UTC
(48 minutes ago)
VFR
Wind Visibility
290° at 8 knots 10,000+ meters
Clouds
  • Clear skies
Temperature Dewpoint
12°C / 54°F 5°C / 41°F
Humidity Altimeter Pressure
63% 30.59" Hg 1036 hPa